sensor_id;sensor_type;location;lat;lon;timestamp;P1;durP1;ratioP1;P2;durP2;ratioP2
54835;SDS011;43486;43.574;1.476;2023-06-14T00:00:09;4.82;;;2.28;;
54835;SDS011;43486;43.574;1.476;2023-06-14T00:02:37;4.38;;;2.13;;
54835;SDS011;43486;43.574;1.476;2023-06-14T00:05:04;5.00;;;2.08;;
54835;SDS011;43486;43.574;1.476;2023-06-14T00:07:34;4.68;;;2.20;;
54835;SDS011;43486;43.574;1.476;2023-06-14T00:10:01;4.45;;;1.95;;
54835;SDS011;43486;43.574;1.476;2023-06-14T00:12:28;7.18;;;2.30;;
54835;SDS011;43486;43.574;1.476;2023-06-14T00:14:53;4.97;;;1.95;;
54835;SDS011;43486;43.574;1.476;2023-06-14T00:17:18;4.90;;;1.98;;
54835;SDS011;43486;43.574;1.476;2023-06-14T00:19:44;3.38;;;1.98;;
54835;SDS011;43486;43.574;1.476;2023-06-14T00:22:09;4.65;;;2.25;;
54835;SDS011;43486;43.574;1.476;2023-06-14T00:24:35;5.10;;;2.03;;
54835;SDS011;43486;43.574;1.476;2023-06-14T00:27:01;5.90;;;2.30;;
54835;SDS011;43486;43.574;1.476;2023-06-14T00:29:26;4.78;;;2.40;;
54835;SDS011;43486;43.574;1.476;2023-06-14T00:31:51;7.32;;;2.25;;
54835;SDS011;43486;43.574;1.476;2023-06-14T00:34:17;4.82;;;2.20;;
54835;SDS011;43486;43.574;1.476;2023-06-14T00:36:42;6.47;;;2.42;;
54835;SDS011;43486;43.574;1.476;2023-06-14T00:39:07;5.00;;;2.25;;
54835;SDS011;43486;43.574;1.476;2023-06-14T00:41:34;6.22;;;1.92;;
54835;SDS011;43486;43.574;1.476;2023-06-14T00:44:00;6.72;;;2.97;;
54835;SDS011;43486;43.574;1.476;2023-06-14T00:46:25;3.35;;;1.65;;
54835;SDS011;43486;43.574;1.476;2023-06-14T00:48:51;3.92;;;1.75;;
54835;SDS011;43486;43.574;1.476;2023-06-14T00:51:16;4.95;;;2.17;;
54835;SDS011;43486;43.574;1.476;2023-06-14T00:53:42;4.38;;;2.03;;
54835;SDS011;43486;43.574;1.476;2023-06-14T00:56:11;5.60;;;2.30;;
54835;SDS011;43486;43.574;1.476;2023-06-14T00:58:38;3.33;;;2.17;;
54835;SDS011;43486;43.574;1.476;2023-06-14T01:01:04;3.97;;;2.10;;
54835;SDS011;43486;43.574;1.476;2023-06-14T01:03:29;3.70;;;2.25;;
54835;SDS011;43486;43.574;1.476;2023-06-14T01:06:04;4.75;;;1.80;;
54835;SDS011;43486;43.574;1.476;2023-06-14T01:08:50;5.03;;;2.20;;
54835;SDS011;43486;43.574;1.476;2023-06-14T01:13:47;4.63;;;2.20;;
54835;SDS011;43486;43.574;1.476;2023-06-14T01:16:13;3.58;;;2.42;;
54835;SDS011;43486;43.574;1.476;2023-06-14T01:18:39;6.03;;;2.78;;
54835;SDS011;43486;43.574;1.476;2023-06-14T01:21:06;6.97;;;2.63;;
54835;SDS011;43486;43.574;1.476;2023-06-14T01:23:45;3.50;;;2.17;;
54835;SDS011;43486;43.574;1.476;2023-06-14T01:26:13;3.80;;;2.30;;
54835;SDS011;43486;43.574;1.476;2023-06-14T01:28:40;4.43;;;1.98;;
54835;SDS011;43486;43.574;1.476;2023-06-14T01:31:06;5.13;;;2.17;;
54835;SDS011;43486;43.574;1.476;2023-06-14T01:33:32;6.03;;;2.10;;
54835;SDS011;43486;43.574;1.476;2023-06-14T01:35:58;4.65;;;2.28;;
54835;SDS011;43486;43.574;1.476;2023-06-14T01:38:27;7.30;;;2.33;;
54835;SDS011;43486;43.574;1.476;2023-06-14T01:40:54;5.70;;;2.67;;
54835;SDS011;43486;43.574;1.476;2023-06-14T01:43:20;6.00;;;2.80;;
54835;SDS011;43486;43.574;1.476;2023-06-14T01:45:46;4.40;;;2.30;;
54835;SDS011;43486;43.574;1.476;2023-06-14T01:48:12;4.07;;;2.00;;
54835;SDS011;43486;43.574;1.476;2023-06-14T01:50:38;5.68;;;2.40;;
54835;SDS011;43486;43.574;1.476;2023-06-14T01:53:06;5.72;;;2.75;;
54835;SDS011;43486;43.574;1.476;2023-06-14T01:55:32;3.75;;;2.45;;
54835;SDS011;43486;43.574;1.476;2023-06-14T01:58:05;5.50;;;2.40;;
54835;SDS011;43486;43.574;1.476;2023-06-14T02:00:30;7.07;;;3.08;;
54835;SDS011;43486;43.574;1.476;2023-06-14T02:02:56;5.25;;;2.80;;
54835;SDS011;43486;43.574;1.476;2023-06-14T02:05:22;7.95;;;3.10;;
54835;SDS011;43486;43.574;1.476;2023-06-14T02:07:47;5.43;;;2.55;;
54835;SDS011;43486;43.574;1.476;2023-06-14T02:10:13;4.18;;;2.50;;
54835;SDS011;43486;43.574;1.476;2023-06-14T02:12:38;4.32;;;2.83;;
54835;SDS011;43486;43.574;1.476;2023-06-14T02:15:04;5.55;;;2.47;;
54835;SDS011;43486;43.574;1.476;2023-06-14T02:17:31;5.45;;;2.50;;
54835;SDS011;43486;43.574;1.476;2023-06-14T02:19:56;4.85;;;2.85;;
54835;SDS011;43486;43.574;1.476;2023-06-14T02:22:22;6.18;;;2.97;;
54835;SDS011;43486;43.574;1.476;2023-06-14T02:24:48;5.35;;;2.28;;
54835;SDS011;43486;43.574;1.476;2023-06-14T02:27:13;7.65;;;2.90;;
54835;SDS011;43486;43.574;1.476;2023-06-14T02:29:38;6.22;;;2.92;;
54835;SDS011;43486;43.574;1.476;2023-06-14T02:32:04;6.13;;;2.38;;
54835;SDS011;43486;43.574;1.476;2023-06-14T02:34:30;5.07;;;2.72;;
54835;SDS011;43486;43.574;1.476;2023-06-14T02:36:55;5.53;;;2.53;;
54835;SDS011;43486;43.574;1.476;2023-06-14T02:39:22;5.10;;;3.22;;
54835;SDS011;43486;43.574;1.476;2023-06-14T02:41:48;7.68;;;3.00;;
54835;SDS011;43486;43.574;1.476;2023-06-14T02:44:14;6.43;;;3.00;;
54835;SDS011;43486;43.574;1.476;2023-06-14T02:46:42;5.15;;;3.08;;
54835;SDS011;43486;43.574;1.476;2023-06-14T02:49:08;4.85;;;2.80;;
54835;SDS011;43486;43.574;1.476;2023-06-14T02:51:34;4.53;;;2.53;;
54835;SDS011;43486;43.574;1.476;2023-06-14T02:53:59;5.70;;;2.90;;
54835;SDS011;43486;43.574;1.476;2023-06-14T02:56:25;6.72;;;3.28;;
54835;SDS011;43486;43.574;1.476;2023-06-14T02:58:51;5.88;;;2.30;;
54835;SDS011;43486;43.574;1.476;2023-06-14T03:01:16;5.53;;;3.30;;
54835;SDS011;43486;43.574;1.476;2023-06-14T03:03:43;5.35;;;2.63;;
54835;SDS011;43486;43.574;1.476;2023-06-14T03:06:08;5.35;;;2.75;;
54835;SDS011;43486;43.574;1.476;2023-06-14T03:08:34;6.07;;;2.88;;
54835;SDS011;43486;43.574;1.476;2023-06-14T03:11:04;4.72;;;2.72;;
54835;SDS011;43486;43.574;1.476;2023-06-14T03:13:33;5.50;;;2.70;;
54835;SDS011;43486;43.574;1.476;2023-06-14T03:16:02;5.60;;;2.58;;
54835;SDS011;43486;43.574;1.476;2023-06-14T03:18:29;4.55;;;2.85;;
54835;SDS011;43486;43.574;1.476;2023-06-14T03:20:56;6.35;;;2.85;;
54835;SDS011;43486;43.574;1.476;2023-06-14T03:23:23;4.43;;;2.53;;
54835;SDS011;43486;43.574;1.476;2023-06-14T03:25:50;5.18;;;2.65;;
54835;SDS011;43486;43.574;1.476;2023-06-14T03:28:16;5.50;;;2.88;;
54835;SDS011;43486;43.574;1.476;2023-06-14T03:30:42;6.28;;;3.03;;
54835;SDS011;43486;43.574;1.476;2023-06-14T03:33:07;4.45;;;2.65;;
54835;SDS011;43486;43.574;1.476;2023-06-14T03:35:33;5.00;;;2.63;;
54835;SDS011;43486;43.574;1.476;2023-06-14T03:37:58;4.80;;;2.88;;
54835;SDS011;43486;43.574;1.476;2023-06-14T03:40:24;5.00;;;2.75;;
54835;SDS011;43486;43.574;1.476;2023-06-14T03:42:50;5.45;;;3.15;;
54835;SDS011;43486;43.574;1.476;2023-06-14T03:45:16;7.15;;;3.38;;
54835;SDS011;43486;43.574;1.476;2023-06-14T03:47:41;4.38;;;2.65;;
54835;SDS011;43486;43.574;1.476;2023-06-14T03:50:06;4.28;;;2.65;;
54835;SDS011;43486;43.574;1.476;2023-06-14T03:52:33;4.22;;;2.47;;
54835;SDS011;43486;43.574;1.476;2023-06-14T03:54:58;4.55;;;2.65;;
54835;SDS011;43486;43.574;1.476;2023-06-14T03:57:25;4.53;;;2.75;;
54835;SDS011;43486;43.574;1.476;2023-06-14T03:59:51;5.20;;;2.65;;
54835;SDS011;43486;43.574;1.476;2023-06-14T04:02:16;6.00;;;3.22;;
54835;SDS011;43486;43.574;1.476;2023-06-14T04:04:42;6.35;;;3.90;;
54835;SDS011;43486;43.574;1.476;2023-06-14T04:07:11;7.05;;;3.28;;
54835;SDS011;43486;43.574;1.476;2023-06-14T04:09:37;4.68;;;2.58;;
54835;SDS011;43486;43.574;1.476;2023-06-14T04:12:04;5.50;;;3.10;;
54835;SDS011;43486;43.574;1.476;2023-06-14T04:14:30;6.15;;;3.10;;
54835;SDS011;43486;43.574;1.476;2023-06-14T04:16:57;5.80;;;3.40;;
54835;SDS011;43486;43.574;1.476;2023-06-14T04:19:23;5.80;;;3.28;;
54835;SDS011;43486;43.574;1.476;2023-06-14T04:21:48;5.68;;;2.88;;
54835;SDS011;43486;43.574;1.476;2023-06-14T04:24:13;5.15;;;2.85;;
54835;SDS011;43486;43.574;1.476;2023-06-14T04:26:39;6.07;;;3.53;;
54835;SDS011;43486;43.574;1.476;2023-06-14T04:29:06;4.85;;;3.15;;
54835;SDS011;43486;43.574;1.476;2023-06-14T04:31:31;9.20;;;3.88;;
54835;SDS011;43486;43.574;1.476;2023-06-14T04:33:58;7.55;;;3.40;;
54835;SDS011;43486;43.574;1.476;2023-06-14T04:36:24;6.38;;;3.28;;
54835;SDS011;43486;43.574;1.476;2023-06-14T04:38:51;9.75;;;3.17;;
54835;SDS011;43486;43.574;1.476;2023-06-14T04:41:20;6.80;;;3.55;;
54835;SDS011;43486;43.574;1.476;2023-06-14T04:43:47;4.13;;;2.38;;
54835;SDS011;43486;43.574;1.476;2023-06-14T04:46:14;5.65;;;3.08;;
54835;SDS011;43486;43.574;1.476;2023-06-14T04:48:40;5.82;;;3.28;;
54835;SDS011;43486;43.574;1.476;2023-06-14T04:51:10;5.78;;;3.15;;
54835;SDS011;43486;43.574;1.476;2023-06-14T04:53:36;11.90;;;4.97;;
54835;SDS011;43486;43.574;1.476;2023-06-14T04:56:02;8.02;;;3.38;;
54835;SDS011;43486;43.574;1.476;2023-06-14T04:58:28;8.15;;;3.55;;
54835;SDS011;43486;43.574;1.476;2023-06-14T05:00:53;6.80;;;2.97;;
54835;SDS011;43486;43.574;1.476;2023-06-14T05:03:21;5.38;;;3.33;;
54835;SDS011;43486;43.574;1.476;2023-06-14T05:05:48;6.43;;;3.60;;
54835;SDS011;43486;43.574;1.476;2023-06-14T05:08:15;7.97;;;4.03;;
54835;SDS011;43486;43.574;1.476;2023-06-14T05:10:41;8.57;;;3.75;;
54835;SDS011;43486;43.574;1.476;2023-06-14T05:13:06;5.28;;;3.13;;
54835;SDS011;43486;43.574;1.476;2023-06-14T05:15:31;9.15;;;3.78;;
54835;SDS011;43486;43.574;1.476;2023-06-14T05:17:57;6.68;;;3.50;;
54835;SDS011;43486;43.574;1.476;2023-06-14T05:20:23;7.70;;;3.63;;
54835;SDS011;43486;43.574;1.476;2023-06-14T05:22:52;6.15;;;3.22;;
54835;SDS011;43486;43.574;1.476;2023-06-14T05:25:18;6.70;;;3.55;;
54835;SDS011;43486;43.574;1.476;2023-06-14T05:27:44;9.93;;;3.38;;
54835;SDS011;43486;43.574;1.476;2023-06-14T05:30:10;7.57;;;3.42;;
54835;SDS011;43486;43.574;1.476;2023-06-14T05:32:36;6.07;;;3.42;;
54835;SDS011;43486;43.574;1.476;2023-06-14T05:35:02;5.70;;;3.33;;
54835;SDS011;43486;43.574;1.476;2023-06-14T05:37:28;8.57;;;4.40;;
54835;SDS011;43486;43.574;1.476;2023-06-14T05:39:54;8.63;;;4.65;;
54835;SDS011;43486;43.574;1.476;2023-06-14T05:42:19;8.35;;;4.75;;
54835;SDS011;43486;43.574;1.476;2023-06-14T05:44:45;7.25;;;4.13;;
54835;SDS011;43486;43.574;1.476;2023-06-14T05:47:10;6.40;;;3.40;;
54835;SDS011;43486;43.574;1.476;2023-06-14T05:49:35;6.55;;;3.80;;
54835;SDS011;43486;43.574;1.476;2023-06-14T05:52:01;7.18;;;3.88;;
54835;SDS011;43486;43.574;1.476;2023-06-14T05:54:26;6.32;;;3.80;;
54835;SDS011;43486;43.574;1.476;2023-06-14T05:56:51;6.30;;;3.80;;
54835;SDS011;43486;43.574;1.476;2023-06-14T05:59:17;6.38;;;3.75;;
54835;SDS011;43486;43.574;1.476;2023-06-14T06:01:42;7.85;;;3.78;;
54835;SDS011;43486;43.574;1.476;2023-06-14T06:04:08;7.40;;;4.38;;
54835;SDS011;43486;43.574;1.476;2023-06-14T06:06:34;7.85;;;4.13;;
54835;SDS011;43486;43.574;1.476;2023-06-14T06:09:00;8.45;;;4.03;;
54835;SDS011;43486;43.574;1.476;2023-06-14T06:11:26;10.63;;;4.15;;
54835;SDS011;43486;43.574;1.476;2023-06-14T06:13:51;7.47;;;3.95;;
54835;SDS011;43486;43.574;1.476;2023-06-14T06:16:17;6.90;;;5.00;;
54835;SDS011;43486;43.574;1.476;2023-06-14T06:18:42;8.05;;;4.80;;
54835;SDS011;43486;43.574;1.476;2023-06-14T06:21:07;10.88;;;5.25;;
54835;SDS011;43486;43.574;1.476;2023-06-14T06:23:33;7.00;;;4.18;;
54835;SDS011;43486;43.574;1.476;2023-06-14T06:25:58;8.43;;;4.22;;
54835;SDS011;43486;43.574;1.476;2023-06-14T06:28:23;10.48;;;5.22;;
54835;SDS011;43486;43.574;1.476;2023-06-14T06:30:49;6.55;;;3.92;;
54835;SDS011;43486;43.574;1.476;2023-06-14T06:33:15;8.48;;;4.43;;
54835;SDS011;43486;43.574;1.476;2023-06-14T06:35:41;8.98;;;4.32;;
54835;SDS011;43486;43.574;1.476;2023-06-14T06:38:06;8.18;;;4.18;;
54835;SDS011;43486;43.574;1.476;2023-06-14T06:40:32;7.43;;;4.88;;
54835;SDS011;43486;43.574;1.476;2023-06-14T06:42:57;7.20;;;5.10;;
54835;SDS011;43486;43.574;1.476;2023-06-14T06:45:22;7.85;;;5.00;;
54835;SDS011;43486;43.574;1.476;2023-06-14T06:47:48;8.63;;;5.07;;
54835;SDS011;43486;43.574;1.476;2023-06-14T06:50:15;14.30;;;4.95;;
54835;SDS011;43486;43.574;1.476;2023-06-14T06:52:40;8.48;;;4.47;;
54835;SDS011;43486;43.574;1.476;2023-06-14T06:55:06;7.45;;;4.70;;
54835;SDS011;43486;43.574;1.476;2023-06-14T06:57:32;7.43;;;4.35;;
54835;SDS011;43486;43.574;1.476;2023-06-14T06:59:57;7.72;;;4.75;;
54835;SDS011;43486;43.574;1.476;2023-06-14T07:02:22;9.77;;;6.07;;
54835;SDS011;43486;43.574;1.476;2023-06-14T07:04:48;10.32;;;5.47;;
54835;SDS011;43486;43.574;1.476;2023-06-14T07:07:13;16.52;;;6.63;;
54835;SDS011;43486;43.574;1.476;2023-06-14T07:09:39;17.67;;;6.75;;
54835;SDS011;43486;43.574;1.476;2023-06-14T07:12:05;11.60;;;6.70;;
54835;SDS011;43486;43.574;1.476;2023-06-14T07:14:31;12.77;;;7.03;;
54835;SDS011;43486;43.574;1.476;2023-06-14T07:16:57;16.92;;;7.47;;
54835;SDS011;43486;43.574;1.476;2023-06-14T07:19:22;10.13;;;5.32;;
54835;SDS011;43486;43.574;1.476;2023-06-14T07:21:48;11.38;;;4.82;;
54835;SDS011;43486;43.574;1.476;2023-06-14T07:24:13;10.18;;;6.00;;
54835;SDS011;43486;43.574;1.476;2023-06-14T07:26:38;10.52;;;6.60;;
54835;SDS011;43486;43.574;1.476;2023-06-14T07:29:04;9.50;;;5.00;;
54835;SDS011;43486;43.574;1.476;2023-06-14T07:31:29;13.63;;;5.63;;
54835;SDS011;43486;43.574;1.476;2023-06-14T07:33:55;12.80;;;6.05;;
54835;SDS011;43486;43.574;1.476;2023-06-14T07:36:21;8.95;;;5.03;;
54835;SDS011;43486;43.574;1.476;2023-06-14T07:38:47;8.15;;;5.35;;
54835;SDS011;43486;43.574;1.476;2023-06-14T07:41:12;12.70;;;6.30;;
54835;SDS011;43486;43.574;1.476;2023-06-14T07:43:37;12.25;;;5.90;;
54835;SDS011;43486;43.574;1.476;2023-06-14T07:46:03;13.18;;;6.70;;
54835;SDS011;43486;43.574;1.476;2023-06-14T07:48:28;9.73;;;5.57;;
54835;SDS011;43486;43.574;1.476;2023-06-14T07:50:53;7.93;;;5.28;;
54835;SDS011;43486;43.574;1.476;2023-06-14T07:53:19;12.55;;;7.28;;
54835;SDS011;43486;43.574;1.476;2023-06-14T07:55:44;10.15;;;5.05;;
54835;SDS011;43486;43.574;1.476;2023-06-14T07:58:12;10.20;;;5.97;;
54835;SDS011;43486;43.574;1.476;2023-06-14T08:00:38;11.05;;;6.35;;
54835;SDS011;43486;43.574;1.476;2023-06-14T08:03:03;8.68;;;4.97;;
54835;SDS011;43486;43.574;1.476;2023-06-14T08:05:29;7.07;;;4.60;;
54835;SDS011;43486;43.574;1.476;2023-06-14T08:07:54;11.10;;;5.72;;
54835;SDS011;43486;43.574;1.476;2023-06-14T08:10:20;12.82;;;6.20;;
54835;SDS011;43486;43.574;1.476;2023-06-14T08:12:46;13.10;;;6.15;;
54835;SDS011;43486;43.574;1.476;2023-06-14T08:15:11;9.57;;;6.38;;
54835;SDS011;43486;43.574;1.476;2023-06-14T08:17:37;9.57;;;5.68;;
54835;SDS011;43486;43.574;1.476;2023-06-14T08:20:02;9.18;;;6.75;;
54835;SDS011;43486;43.574;1.476;2023-06-14T08:22:30;9.73;;;5.75;;
54835;SDS011;43486;43.574;1.476;2023-06-14T08:24:58;9.82;;;6.43;;
54835;SDS011;43486;43.574;1.476;2023-06-14T08:27:24;9.07;;;5.20;;
54835;SDS011;43486;43.574;1.476;2023-06-14T08:29:50;9.65;;;5.75;;
54835;SDS011;43486;43.574;1.476;2023-06-14T08:32:15;10.70;;;4.85;;
54835;SDS011;43486;43.574;1.476;2023-06-14T08:34:41;13.68;;;6.28;;
54835;SDS011;43486;43.574;1.476;2023-06-14T08:37:06;12.43;;;6.22;;
54835;SDS011;43486;43.574;1.476;2023-06-14T08:39:32;12.40;;;6.40;;
54835;SDS011;43486;43.574;1.476;2023-06-14T08:41:58;12.93;;;5.38;;
54835;SDS011;43486;43.574;1.476;2023-06-14T08:44:23;8.95;;;5.25;;
54835;SDS011;43486;43.574;1.476;2023-06-14T08:46:49;9.20;;;4.97;;
54835;SDS011;43486;43.574;1.476;2023-06-14T08:49:16;9.05;;;5.20;;
54835;SDS011;43486;43.574;1.476;2023-06-14T08:51:42;9.60;;;5.78;;
54835;SDS011;43486;43.574;1.476;2023-06-14T08:54:08;10.43;;;5.32;;
54835;SDS011;43486;43.574;1.476;2023-06-14T08:56:35;11.75;;;5.70;;
54835;SDS011;43486;43.574;1.476;2023-06-14T08:59:02;11.95;;;5.43;;
54835;SDS011;43486;43.574;1.476;2023-06-14T09:01:35;9.05;;;6.88;;
54835;SDS011;43486;43.574;1.476;2023-06-14T09:04:02;8.88;;;5.72;;
54835;SDS011;43486;43.574;1.476;2023-06-14T09:06:28;12.10;;;5.68;;
54835;SDS011;43486;43.574;1.476;2023-06-14T09:08:54;9.50;;;6.50;;
54835;SDS011;43486;43.574;1.476;2023-06-14T09:11:22;12.10;;;7.15;;
54835;SDS011;43486;43.574;1.476;2023-06-14T09:13:48;12.98;;;6.07;;
54835;SDS011;43486;43.574;1.476;2023-06-14T09:16:14;10.68;;;5.85;;
54835;SDS011;43486;43.574;1.476;2023-06-14T09:18:43;10.05;;;5.80;;
54835;SDS011;43486;43.574;1.476;2023-06-14T09:21:12;11.15;;;6.32;;
54835;SDS011;43486;43.574;1.476;2023-06-14T09:23:39;15.45;;;6.75;;
54835;SDS011;43486;43.574;1.476;2023-06-14T09:26:09;11.40;;;6.47;;
54835;SDS011;43486;43.574;1.476;2023-06-14T09:28:48;11.00;;;6.95;;
54835;SDS011;43486;43.574;1.476;2023-06-14T09:31:17;12.30;;;5.82;;
54835;SDS011;43486;43.574;1.476;2023-06-14T09:33:44;12.98;;;5.95;;
54835;SDS011;43486;43.574;1.476;2023-06-14T09:36:17;11.27;;;6.45;;
54835;SDS011;43486;43.574;1.476;2023-06-14T09:38:53;10.77;;;6.20;;
54835;SDS011;43486;43.574;1.476;2023-06-14T09:43:57;11.25;;;6.55;;
54835;SDS011;43486;43.574;1.476;2023-06-14T09:46:25;12.38;;;7.60;;
54835;SDS011;43486;43.574;1.476;2023-06-14T09:48:51;8.95;;;6.55;;
54835;SDS011;43486;43.574;1.476;2023-06-14T09:51:17;10.82;;;6.45;;
54835;SDS011;43486;43.574;1.476;2023-06-14T09:53:43;8.95;;;5.65;;
54835;SDS011;43486;43.574;1.476;2023-06-14T09:56:09;9.48;;;7.50;;
54835;SDS011;43486;43.574;1.476;2023-06-14T09:58:35;10.43;;;6.70;;
54835;SDS011;43486;43.574;1.476;2023-06-14T10:01:02;10.85;;;6.85;;
54835;SDS011;43486;43.574;1.476;2023-06-14T10:03:28;12.30;;;7.57;;
54835;SDS011;43486;43.574;1.476;2023-06-14T10:05:55;9.05;;;6.72;;
54835;SDS011;43486;43.574;1.476;2023-06-14T10:08:23;11.23;;;7.40;;
54835;SDS011;43486;43.574;1.476;2023-06-14T10:10:53;12.10;;;6.60;;
54835;SDS011;43486;43.574;1.476;2023-06-14T10:13:20;11.35;;;5.53;;
54835;SDS011;43486;43.574;1.476;2023-06-14T10:18:48;10.30;;;6.78;;
54835;SDS011;43486;43.574;1.476;2023-06-14T10:21:21;9.38;;;6.20;;
54835;SDS011;43486;43.574;1.476;2023-06-14T10:23:51;12.50;;;6.95;;
54835;SDS011;43486;43.574;1.476;2023-06-14T10:26:20;10.77;;;6.72;;
54835;SDS011;43486;43.574;1.476;2023-06-14T10:28:56;11.50;;;5.93;;
54835;SDS011;43486;43.574;1.476;2023-06-14T10:31:23;9.05;;;6.93;;
54835;SDS011;43486;43.574;1.476;2023-06-14T10:34:05;8.93;;;5.60;;
54835;SDS011;43486;43.574;1.476;2023-06-14T10:36:31;10.23;;;5.72;;
54835;SDS011;43486;43.574;1.476;2023-06-14T10:39:00;9.77;;;5.45;;
54835;SDS011;43486;43.574;1.476;2023-06-14T10:41:29;12.13;;;6.55;;
54835;SDS011;43486;43.574;1.476;2023-06-14T10:44:55;10.52;;;7.40;;
54835;SDS011;43486;43.574;1.476;2023-06-14T10:46:52;9.60;;;8.00;;
54835;SDS011;43486;43.574;1.476;2023-06-14T10:49:28;11.30;;;7.05;;
54835;SDS011;43486;43.574;1.476;2023-06-14T10:52:03;13.05;;;7.85;;
54835;SDS011;43486;43.574;1.476;2023-06-14T10:54:31;13.27;;;7.97;;
54835;SDS011;43486;43.574;1.476;2023-06-14T10:56:56;10.43;;;6.22;;
54835;SDS011;43486;43.574;1.476;2023-06-14T10:59:24;11.73;;;7.45;;
54835;SDS011;43486;43.574;1.476;2023-06-14T11:02:00;13.40;;;6.68;;
54835;SDS011;43486;43.574;1.476;2023-06-14T11:04:50;9.68;;;5.97;;
54835;SDS011;43486;43.574;1.476;2023-06-14T11:12:41;15.48;;;8.73;;
54835;SDS011;43486;43.574;1.476;2023-06-14T11:15:07;19.67;;;9.27;;
54835;SDS011;43486;43.574;1.476;2023-06-14T11:17:33;15.25;;;9.68;;
54835;SDS011;43486;43.574;1.476;2023-06-14T11:20:08;19.65;;;10.30;;
54835;SDS011;43486;43.574;1.476;2023-06-14T11:22:43;13.73;;;10.70;;
54835;SDS011;43486;43.574;1.476;2023-06-14T11:25:09;19.98;;;11.82;;
54835;SDS011;43486;43.574;1.476;2023-06-14T11:27:36;18.38;;;11.15;;
54835;SDS011;43486;43.574;1.476;2023-06-14T11:30:01;17.92;;;11.63;;
54835;SDS011;43486;43.574;1.476;2023-06-14T11:32:27;22.45;;;10.45;;
54835;SDS011;43486;43.574;1.476;2023-06-14T11:34:52;19.83;;;9.52;;
54835;SDS011;43486;43.574;1.476;2023-06-14T11:37:18;27.98;;;10.18;;
54835;SDS011;43486;43.574;1.476;2023-06-14T11:39:44;16.63;;;9.55;;
54835;SDS011;43486;43.574;1.476;2023-06-14T11:42:13;15.40;;;10.73;;
54835;SDS011;43486;43.574;1.476;2023-06-14T11:44:41;15.25;;;10.48;;
54835;SDS011;43486;43.574;1.476;2023-06-14T11:47:06;17.08;;;9.48;;
54835;SDS011;43486;43.574;1.476;2023-06-14T11:49:35;16.55;;;10.90;;
54835;SDS011;43486;43.574;1.476;2023-06-14T11:52:01;15.50;;;11.32;;
54835;SDS011;43486;43.574;1.476;2023-06-14T11:54:26;15.85;;;9.50;;
54835;SDS011;43486;43.574;1.476;2023-06-14T11:56:52;22.15;;;10.60;;
54835;SDS011;43486;43.574;1.476;2023-06-14T11:59:18;22.33;;;11.07;;
54835;SDS011;43486;43.574;1.476;2023-06-14T12:01:43;21.23;;;9.35;;
54835;SDS011;43486;43.574;1.476;2023-06-14T12:04:09;17.33;;;11.15;;
54835;SDS011;43486;43.574;1.476;2023-06-14T12:06:34;20.77;;;11.25;;
54835;SDS011;43486;43.574;1.476;2023-06-14T12:09:04;24.45;;;9.75;;
54835;SDS011;43486;43.574;1.476;2023-06-14T12:11:38;17.17;;;10.82;;
54835;SDS011;43486;43.574;1.476;2023-06-14T12:14:04;16.20;;;9.85;;
54835;SDS011;43486;43.574;1.476;2023-06-14T12:16:30;15.50;;;10.25;;
54835;SDS011;43486;43.574;1.476;2023-06-14T12:18:59;13.13;;;9.45;;
54835;SDS011;43486;43.574;1.476;2023-06-14T12:21:27;14.55;;;10.25;;
54835;SDS011;43486;43.574;1.476;2023-06-14T12:23:53;15.75;;;10.15;;
54835;SDS011;43486;43.574;1.476;2023-06-14T12:26:19;17.48;;;11.18;;
54835;SDS011;43486;43.574;1.476;2023-06-14T12:28:45;16.42;;;10.93;;
54835;SDS011;43486;43.574;1.476;2023-06-14T12:31:11;21.02;;;10.77;;
54835;SDS011;43486;43.574;1.476;2023-06-14T12:33:38;16.20;;;10.85;;
54835;SDS011;43486;43.574;1.476;2023-06-14T12:36:07;13.13;;;10.35;;
54835;SDS011;43486;43.574;1.476;2023-06-14T12:38:33;17.48;;;9.35;;
54835;SDS011;43486;43.574;1.476;2023-06-14T12:40:59;17.52;;;9.77;;
54835;SDS011;43486;43.574;1.476;2023-06-14T12:43:25;18.98;;;10.75;;
54835;SDS011;43486;43.574;1.476;2023-06-14T12:45:50;13.75;;;11.95;;
54835;SDS011;43486;43.574;1.476;2023-06-14T12:48:16;17.75;;;11.05;;
54835;SDS011;43486;43.574;1.476;2023-06-14T12:50:41;13.75;;;10.40;;
54835;SDS011;43486;43.574;1.476;2023-06-14T12:53:07;19.65;;;11.95;;
54835;SDS011;43486;43.574;1.476;2023-06-14T12:55:32;14.45;;;11.48;;
54835;SDS011;43486;43.574;1.476;2023-06-14T12:57:58;14.57;;;10.15;;
54835;SDS011;43486;43.574;1.476;2023-06-14T13:00:23;18.58;;;10.55;;
54835;SDS011;43486;43.574;1.476;2023-06-14T13:02:50;15.90;;;10.77;;
54835;SDS011;43486;43.574;1.476;2023-06-14T13:05:16;16.85;;;10.68;;
54835;SDS011;43486;43.574;1.476;2023-06-14T13:07:42;13.93;;;10.10;;
54835;SDS011;43486;43.574;1.476;2023-06-14T13:10:08;14.43;;;9.35;;
54835;SDS011;43486;43.574;1.476;2023-06-14T13:12:33;20.85;;;11.57;;
54835;SDS011;43486;43.574;1.476;2023-06-14T13:14:59;12.55;;;9.25;;
54835;SDS011;43486;43.574;1.476;2023-06-14T13:17:24;15.77;;;11.50;;
54835;SDS011;43486;43.574;1.476;2023-06-14T13:19:49;18.33;;;10.25;;
54835;SDS011;43486;43.574;1.476;2023-06-14T13:22:15;18.48;;;11.27;;
54835;SDS011;43486;43.574;1.476;2023-06-14T13:24:40;18.65;;;10.55;;
54835;SDS011;43486;43.574;1.476;2023-06-14T13:27:06;18.92;;;11.55;;
54835;SDS011;43486;43.574;1.476;2023-06-14T13:29:31;15.23;;;12.07;;
54835;SDS011;43486;43.574;1.476;2023-06-14T13:31:58;13.18;;;9.82;;
54835;SDS011;43486;43.574;1.476;2023-06-14T13:34:23;15.68;;;8.93;;
54835;SDS011;43486;43.574;1.476;2023-06-14T13:36:49;18.13;;;9.60;;
54835;SDS011;43486;43.574;1.476;2023-06-14T13:39:14;16.27;;;10.60;;
54835;SDS011;43486;43.574;1.476;2023-06-14T13:41:40;18.17;;;11.25;;
54835;SDS011;43486;43.574;1.476;2023-06-14T13:44:05;19.25;;;10.73;;
54835;SDS011;43486;43.574;1.476;2023-06-14T13:46:31;14.05;;;10.55;;
54835;SDS011;43486;43.574;1.476;2023-06-14T13:48:56;14.93;;;11.18;;
54835;SDS011;43486;43.574;1.476;2023-06-14T13:51:23;20.02;;;11.40;;
54835;SDS011;43486;43.574;1.476;2023-06-14T13:53:48;16.88;;;9.95;;
54835;SDS011;43486;43.574;1.476;2023-06-14T13:56:14;21.33;;;10.30;;
54835;SDS011;43486;43.574;1.476;2023-06-14T13:58:40;15.95;;;9.70;;
54835;SDS011;43486;43.574;1.476;2023-06-14T14:01:06;13.90;;;9.43;;
54835;SDS011;43486;43.574;1.476;2023-06-14T14:03:32;17.52;;;10.82;;
54835;SDS011;43486;43.574;1.476;2023-06-14T14:05:58;16.67;;;10.57;;
54835;SDS011;43486;43.574;1.476;2023-06-14T14:08:23;14.55;;;11.52;;
54835;SDS011;43486;43.574;1.476;2023-06-14T14:10:49;20.85;;;11.18;;
54835;SDS011;43486;43.574;1.476;2023-06-14T14:13:15;16.00;;;12.13;;
54835;SDS011;43486;43.574;1.476;2023-06-14T14:15:40;16.08;;;10.88;;
54835;SDS011;43486;43.574;1.476;2023-06-14T14:18:05;15.65;;;11.35;;
54835;SDS011;43486;43.574;1.476;2023-06-14T14:20:31;22.52;;;11.75;;
54835;SDS011;43486;43.574;1.476;2023-06-14T14:22:56;20.80;;;11.63;;
54835;SDS011;43486;43.574;1.476;2023-06-14T14:25:21;16.98;;;10.85;;
54835;SDS011;43486;43.574;1.476;2023-06-14T14:27:47;13.50;;;10.00;;
54835;SDS011;43486;43.574;1.476;2023-06-14T14:30:13;14.15;;;10.60;;
54835;SDS011;43486;43.574;1.476;2023-06-14T14:32:39;12.93;;;10.10;;
54835;SDS011;43486;43.574;1.476;2023-06-14T14:35:05;16.80;;;11.57;;
54835;SDS011;43486;43.574;1.476;2023-06-14T14:37:31;12.43;;;9.02;;
54835;SDS011;43486;43.574;1.476;2023-06-14T14:39:57;14.80;;;10.02;;
54835;SDS011;43486;43.574;1.476;2023-06-14T14:42:22;15.73;;;9.60;;
54835;SDS011;43486;43.574;1.476;2023-06-14T14:44:47;16.63;;;11.73;;
54835;SDS011;43486;43.574;1.476;2023-06-14T14:47:13;19.02;;;10.73;;